sensor_id;sensor_type;location;lat;lon;timestamp;P1;durP1;ratioP1;P2;durP2;ratioP2
16760;SDS011;8498;52.516;13.790;2022-10-16T00:05:07;3.80;;;3.33;;
16760;SDS011;8498;52.516;13.790;2022-10-16T00:10:29;4.77;;;3.27;;
16760;SDS011;8498;52.516;13.790;2022-10-16T00:15:54;2.97;;;2.77;;
16760;SDS011;8498;52.516;13.790;2022-10-16T00:21:19;3.20;;;2.80;;
16760;SDS011;8498;52.516;13.790;2022-10-16T00:26:43;3.47;;;3.17;;
16760;SDS011;8498;52.516;13.790;2022-10-16T00:32:06;3.20;;;3.00;;
16760;SDS011;8498;52.516;13.790;2022-10-16T00:37:29;2.90;;;2.70;;
16760;SDS011;8498;52.516;13.790;2022-10-16T00:42:51;4.17;;;2.80;;
16760;SDS011;8498;52.516;13.790;2022-10-16T00:48:13;3.37;;;3.13;;
16760;SDS011;8498;52.516;13.790;2022-10-16T00:53:36;2.97;;;2.77;;
16760;SDS011;8498;52.516;13.790;2022-10-16T00:58:58;3.37;;;3.07;;
16760;SDS011;8498;52.516;13.790;2022-10-16T01:04:24;4.53;;;3.10;;
16760;SDS011;8498;52.516;13.790;2022-10-16T01:09:53;3.07;;;2.77;;
16760;SDS011;8498;52.516;13.790;2022-10-16T01:15:47;3.13;;;2.93;;
16760;SDS011;8498;52.516;13.790;2022-10-16T01:21:22;4.70;;;2.63;;
16760;SDS011;8498;52.516;13.790;2022-10-16T01:26:56;3.13;;;2.77;;
16760;SDS011;8498;52.516;13.790;2022-10-16T01:32:36;4.03;;;2.80;;
16760;SDS011;8498;52.516;13.790;2022-10-16T01:38:19;3.33;;;2.80;;
16760;SDS011;8498;52.516;13.790;2022-10-16T01:43:53;2.73;;;2.53;;
16760;SDS011;8498;52.516;13.790;2022-10-16T01:49:31;3.00;;;2.73;;
16760;SDS011;8498;52.516;13.790;2022-10-16T01:54:57;2.83;;;2.40;;
16760;SDS011;8498;52.516;13.790;2022-10-16T02:00:21;2.53;;;2.33;;
16760;SDS011;8498;52.516;13.790;2022-10-16T02:05:52;3.13;;;2.93;;
16760;SDS011;8498;52.516;13.790;2022-10-16T02:11:17;3.00;;;2.80;;
16760;SDS011;8498;52.516;13.790;2022-10-16T02:16:41;2.77;;;2.57;;
16760;SDS011;8498;52.516;13.790;2022-10-16T02:22:08;2.83;;;2.57;;
16760;SDS011;8498;52.516;13.790;2022-10-16T02:27:54;2.50;;;2.13;;
16760;SDS011;8498;52.516;13.790;2022-10-16T02:33:20;2.50;;;2.30;;
16760;SDS011;8498;52.516;13.790;2022-10-16T02:38:44;2.47;;;2.27;;
16760;SDS011;8498;52.516;13.790;2022-10-16T02:44:07;2.40;;;2.20;;
16760;SDS011;8498;52.516;13.790;2022-10-16T02:49:30;2.43;;;2.23;;
16760;SDS011;8498;52.516;13.790;2022-10-16T02:54:52;2.40;;;2.30;;
16760;SDS011;8498;52.516;13.790;2022-10-16T03:00:16;2.23;;;2.03;;
16760;SDS011;8498;52.516;13.790;2022-10-16T03:05:39;2.10;;;2.00;;
16760;SDS011;8498;52.516;13.790;2022-10-16T03:11:01;2.07;;;1.97;;
16760;SDS011;8498;52.516;13.790;2022-10-16T03:16:24;3.33;;;2.40;;
16760;SDS011;8498;52.516;13.790;2022-10-16T03:21:46;2.10;;;1.90;;
16760;SDS011;8498;52.516;13.790;2022-10-16T03:27:09;4.27;;;2.13;;
16760;SDS011;8498;52.516;13.790;2022-10-16T03:32:31;1.93;;;1.83;;
16760;SDS011;8498;52.516;13.790;2022-10-16T03:37:54;2.77;;;1.80;;
16760;SDS011;8498;52.516;13.790;2022-10-16T03:43:16;1.87;;;1.77;;
16760;SDS011;8498;52.516;13.790;2022-10-16T03:48:38;3.63;;;2.20;;
16760;SDS011;8498;52.516;13.790;2022-10-16T03:54:01;3.00;;;2.10;;
16760;SDS011;8498;52.516;13.790;2022-10-16T03:59:24;2.17;;;2.07;;
16760;SDS011;8498;52.516;13.790;2022-10-16T04:04:46;3.50;;;2.17;;
16760;SDS011;8498;52.516;13.790;2022-10-16T04:10:08;2.73;;;2.10;;
16760;SDS011;8498;52.516;13.790;2022-10-16T04:15:31;1.80;;;1.70;;
16760;SDS011;8498;52.516;13.790;2022-10-16T04:20:54;2.63;;;2.00;;
16760;SDS011;8498;52.516;13.790;2022-10-16T04:26:17;2.70;;;2.00;;
16760;SDS011;8498;52.516;13.790;2022-10-16T04:31:39;2.00;;;1.90;;
16760;SDS011;8498;52.516;13.790;2022-10-16T04:37:02;2.37;;;1.80;;
16760;SDS011;8498;52.516;13.790;2022-10-16T04:42:24;2.43;;;1.90;;
16760;SDS011;8498;52.516;13.790;2022-10-16T04:47:46;5.23;;;2.30;;
16760;SDS011;8498;52.516;13.790;2022-10-16T04:53:09;2.37;;;1.93;;
16760;SDS011;8498;52.516;13.790;2022-10-16T04:58:31;1.87;;;1.77;;
16760;SDS011;8498;52.516;13.790;2022-10-16T05:03:53;2.00;;;1.90;;
16760;SDS011;8498;52.516;13.790;2022-10-16T05:09:16;1.73;;;1.63;;
16760;SDS011;8498;52.516;13.790;2022-10-16T05:14:38;1.83;;;1.53;;
16760;SDS011;8498;52.516;13.790;2022-10-16T05:20:00;2.60;;;1.77;;
16760;SDS011;8498;52.516;13.790;2022-10-16T05:25:23;2.03;;;1.90;;
16760;SDS011;8498;52.516;13.790;2022-10-16T05:30:45;1.90;;;1.80;;
16760;SDS011;8498;52.516;13.790;2022-10-16T05:36:08;2.37;;;2.17;;
16760;SDS011;8498;52.516;13.790;2022-10-16T05:41:31;2.20;;;1.90;;
16760;SDS011;8498;52.516;13.790;2022-10-16T05:46:53;2.17;;;2.00;;
16760;SDS011;8498;52.516;13.790;2022-10-16T05:52:16;2.20;;;2.10;;
16760;SDS011;8498;52.516;13.790;2022-10-16T05:57:38;3.00;;;2.37;;
16760;SDS011;8498;52.516;13.790;2022-10-16T06:03:03;3.57;;;1.97;;
16760;SDS011;8498;52.516;13.790;2022-10-16T06:08:26;4.80;;;2.37;;
16760;SDS011;8498;52.516;13.790;2022-10-16T06:13:49;2.23;;;2.13;;
16760;SDS011;8498;52.516;13.790;2022-10-16T06:19:12;3.20;;;2.70;;
16760;SDS011;8498;52.516;13.790;2022-10-16T06:24:35;4.03;;;2.10;;
16760;SDS011;8498;52.516;13.790;2022-10-16T06:29:57;2.03;;;1.93;;
16760;SDS011;8498;52.516;13.790;2022-10-16T06:35:19;2.03;;;1.93;;
16760;SDS011;8498;52.516;13.790;2022-10-16T06:40:42;1.97;;;1.87;;
16760;SDS011;8498;52.516;13.790;2022-10-16T06:46:04;3.27;;;2.20;;
16760;SDS011;8498;52.516;13.790;2022-10-16T06:51:29;2.37;;;2.17;;
16760;SDS011;8498;52.516;13.790;2022-10-16T06:56:54;2.70;;;2.20;;
16760;SDS011;8498;52.516;13.790;2022-10-16T07:02:16;2.00;;;1.90;;
16760;SDS011;8498;52.516;13.790;2022-10-16T07:07:38;2.90;;;2.60;;
16760;SDS011;8498;52.516;13.790;2022-10-16T07:13:01;2.50;;;2.30;;
16760;SDS011;8498;52.516;13.790;2022-10-16T07:18:24;3.87;;;2.30;;
16760;SDS011;8498;52.516;13.790;2022-10-16T07:23:52;2.30;;;2.10;;
16760;SDS011;8498;52.516;13.790;2022-10-16T07:29:16;4.97;;;2.43;;
16760;SDS011;8498;52.516;13.790;2022-10-16T07:34:41;2.13;;;2.03;;
16760;SDS011;8498;52.516;13.790;2022-10-16T07:40:04;2.30;;;2.20;;
16760;SDS011;8498;52.516;13.790;2022-10-16T07:45:27;3.93;;;2.40;;
16760;SDS011;8498;52.516;13.790;2022-10-16T07:50:49;4.27;;;2.40;;
16760;SDS011;8498;52.516;13.790;2022-10-16T07:56:12;3.17;;;2.30;;
16760;SDS011;8498;52.516;13.790;2022-10-16T08:01:35;2.42;;;2.20;;
16760;SDS011;8498;52.516;13.790;2022-10-16T08:06:57;2.00;;;1.80;;
16760;SDS011;8498;52.516;13.790;2022-10-16T08:12:19;2.92;;;1.88;;
16760;SDS011;8498;52.516;13.790;2022-10-16T08:17:42;1.75;;;1.65;;
16760;SDS011;8498;52.516;13.790;2022-10-16T08:23:05;2.00;;;1.80;;
16760;SDS011;8498;52.516;13.790;2022-10-16T08:28:28;4.70;;;1.67;;
16760;SDS011;8498;52.516;13.790;2022-10-16T08:33:51;2.00;;;1.90;;
16760;SDS011;8498;52.516;13.790;2022-10-16T08:39:15;1.93;;;1.83;;
16760;SDS011;8498;52.516;13.790;2022-10-16T08:50:25;1.80;;;1.70;;
16760;SDS011;8498;52.516;13.790;2022-10-16T08:55:50;2.05;;;1.80;;
16760;SDS011;8498;52.516;13.790;2022-10-16T09:01:16;4.50;;;2.15;;
16760;SDS011;8498;52.516;13.790;2022-10-16T09:06:52;3.50;;;1.50;;
16760;SDS011;8498;52.516;13.790;2022-10-16T09:23:10;1.65;;;1.20;;
16760;SDS011;8498;52.516;13.790;2022-10-16T09:28:37;2.25;;;1.25;;
16760;SDS011;8498;52.516;13.790;2022-10-16T09:34:00;1.15;;;1.15;;
16760;SDS011;8498;52.516;13.790;2022-10-16T09:39:28;1.10;;;1.10;;
16760;SDS011;8498;52.516;13.790;2022-10-16T09:44:51;1.10;;;1.10;;
16760;SDS011;8498;52.516;13.790;2022-10-16T09:50:25;1.40;;;1.30;;
16760;SDS011;8498;52.516;13.790;2022-10-16T09:55:49;1.10;;;1.10;;
16760;SDS011;8498;52.516;13.790;2022-10-16T10:01:13;1.30;;;1.20;;
16760;SDS011;8498;52.516;13.790;2022-10-16T10:06:44;1.33;;;1.23;;
16760;SDS011;8498;52.516;13.790;2022-10-16T10:12:19;1.25;;;1.10;;
16760;SDS011;8498;52.516;13.790;2022-10-16T10:17:52;1.50;;;1.40;;
16760;SDS011;8498;52.516;13.790;2022-10-16T10:23:25;2.38;;;1.13;;
16760;SDS011;8498;52.516;13.790;2022-10-16T10:34:40;1.20;;;1.20;;
16760;SDS011;8498;52.516;13.790;2022-10-16T10:40:22;1.40;;;1.30;;
16760;SDS011;8498;52.516;13.790;2022-10-16T10:45:46;2.05;;;1.30;;
16760;SDS011;8498;52.516;13.790;2022-10-16T10:51:15;1.60;;;1.10;;
16760;SDS011;8498;52.516;13.790;2022-10-16T10:56:45;1.13;;;1.13;;
16760;SDS011;8498;52.516;13.790;2022-10-16T11:02:21;1.48;;;1.35;;
16760;SDS011;8498;52.516;13.790;2022-10-16T11:07:59;1.27;;;1.17;;
16760;SDS011;8498;52.516;13.790;2022-10-16T11:19:44;1.23;;;1.23;;
16760;SDS011;8498;52.516;13.790;2022-10-16T11:30:28;0.90;;;0.90;;
16760;SDS011;8498;52.516;13.790;2022-10-16T11:41:36;2.15;;;1.17;;
16760;SDS011;8498;52.516;13.790;2022-10-16T12:04:19;1.00;;;1.00;;
16760;SDS011;8498;52.516;13.790;2022-10-16T12:09:49;2.35;;;1.00;;
16760;SDS011;8498;52.516;13.790;2022-10-16T12:21:20;2.63;;;1.30;;
16760;SDS011;8498;52.516;13.790;2022-10-16T12:26:52;0.70;;;0.70;;
16760;SDS011;8498;52.516;13.790;2022-10-16T12:32:29;1.48;;;1.00;;
16760;SDS011;8498;52.516;13.790;2022-10-16T12:38:14;0.80;;;0.80;;
16760;SDS011;8498;52.516;13.790;2022-10-16T12:54:37;0.70;;;0.70;;
16760;SDS011;8498;52.516;13.790;2022-10-16T13:00:06;0.70;;;0.70;;
16760;SDS011;8498;52.516;13.790;2022-10-16T13:28:19;0.70;;;0.70;;
16760;SDS011;8498;52.516;13.790;2022-10-16T13:33:46;0.70;;;0.70;;
16760;SDS011;8498;52.516;13.790;2022-10-16T13:44:40;1.25;;;1.17;;
16760;SDS011;8498;52.516;13.790;2022-10-16T13:50:16;1.33;;;1.27;;
16760;SDS011;8498;52.516;13.790;2022-10-16T13:55:40;2.53;;;1.65;;
16760;SDS011;8498;52.516;13.790;2022-10-16T14:01:04;2.28;;;1.38;;
16760;SDS011;8498;52.516;13.790;2022-10-16T14:06:28;1.77;;;1.48;;
16760;SDS011;8498;52.516;13.790;2022-10-16T14:11:52;1.45;;;1.35;;
16760;SDS011;8498;52.516;13.790;2022-10-16T14:17:24;1.65;;;0.70;;
16760;SDS011;8498;52.516;13.790;2022-10-16T14:22:49;1.00;;;1.00;;
16760;SDS011;8498;52.516;13.790;2022-10-16T14:28:22;0.80;;;0.80;;
16760;SDS011;8498;52.516;13.790;2022-10-16T14:33:45;0.80;;;0.80;;
16760;SDS011;8498;52.516;13.790;2022-10-16T14:39:17;0.93;;;0.85;;
16760;SDS011;8498;52.516;13.790;2022-10-16T14:44:42;1.52;;;0.80;;
16760;SDS011;8498;52.516;13.790;2022-10-16T14:50:07;1.85;;;0.70;;
16760;SDS011;8498;52.516;13.790;2022-10-16T14:55:30;1.15;;;0.90;;
16760;SDS011;8498;52.516;13.790;2022-10-16T15:00:53;1.20;;;1.10;;
16760;SDS011;8498;52.516;13.790;2022-10-16T15:06:17;1.30;;;1.30;;
16760;SDS011;8498;52.516;13.790;2022-10-16T15:11:41;1.50;;;1.20;;
16760;SDS011;8498;52.516;13.790;2022-10-16T15:17:03;2.15;;;1.17;;
16760;SDS011;8498;52.516;13.790;2022-10-16T15:22:26;1.17;;;1.17;;
16760;SDS011;8498;52.516;13.790;2022-10-16T15:27:48;1.67;;;1.30;;
16760;SDS011;8498;52.516;13.790;2022-10-16T15:33:12;1.67;;;1.58;;
16760;SDS011;8498;52.516;13.790;2022-10-16T15:38:38;2.95;;;2.40;;
16760;SDS011;8498;52.516;13.790;2022-10-16T15:44:01;2.10;;;1.10;;
16760;SDS011;8498;52.516;13.790;2022-10-16T15:49:23;3.15;;;2.00;;
16760;SDS011;8498;52.516;13.790;2022-10-16T15:54:45;5.00;;;2.90;;
16760;SDS011;8498;52.516;13.790;2022-10-16T16:00:17;3.95;;;2.03;;
16760;SDS011;8498;52.516;13.790;2022-10-16T16:05:45;2.30;;;2.10;;
16760;SDS011;8498;52.516;13.790;2022-10-16T16:11:11;2.33;;;2.10;;
16760;SDS011;8498;52.516;13.790;2022-10-16T16:16:35;5.68;;;2.35;;
16760;SDS011;8498;52.516;13.790;2022-10-16T16:22:00;2.10;;;1.90;;
16760;SDS011;8498;52.516;13.790;2022-10-16T16:27:22;1.92;;;1.80;;
16760;SDS011;8498;52.516;13.790;2022-10-16T16:32:47;3.22;;;1.88;;
16760;SDS011;8498;52.516;13.790;2022-10-16T16:44:06;6.00;;;2.20;;
16760;SDS011;8498;52.516;13.790;2022-10-16T16:49:31;6.90;;;2.93;;
16760;SDS011;8498;52.516;13.790;2022-10-16T16:54:53;2.00;;;1.90;;
16760;SDS011;8498;52.516;13.790;2022-10-16T17:00:15;2.20;;;2.00;;
16760;SDS011;8498;52.516;13.790;2022-10-16T17:05:38;3.73;;;2.10;;
16760;SDS011;8498;52.516;13.790;2022-10-16T17:11:00;2.53;;;2.33;;
16760;SDS011;8498;52.516;13.790;2022-10-16T17:16:23;2.83;;;2.17;;
16760;SDS011;8498;52.516;13.790;2022-10-16T17:21:48;4.30;;;2.10;;
16760;SDS011;8498;52.516;13.790;2022-10-16T17:27:12;7.57;;;2.30;;
16760;SDS011;8498;52.516;13.790;2022-10-16T17:32:34;8.60;;;4.40;;
16760;SDS011;8498;52.516;13.790;2022-10-16T17:37:57;6.10;;;4.30;;
16760;SDS011;8498;52.516;13.790;2022-10-16T17:43:19;11.93;;;6.43;;
16760;SDS011;8498;52.516;13.790;2022-10-16T17:48:43;8.40;;;6.23;;
16760;SDS011;8498;52.516;13.790;2022-10-16T17:54:07;7.03;;;4.80;;
16760;SDS011;8498;52.516;13.790;2022-10-16T17:59:30;8.83;;;4.83;;
16760;SDS011;8498;52.516;13.790;2022-10-16T18:04:53;19.33;;;8.97;;
16760;SDS011;8498;52.516;13.790;2022-10-16T18:10:17;29.57;;;12.97;;
16760;SDS011;8498;52.516;13.790;2022-10-16T18:15:42;23.20;;;11.07;;
16760;SDS011;8498;52.516;13.790;2022-10-16T18:21:07;11.73;;;7.60;;
16760;SDS011;8498;52.516;13.790;2022-10-16T18:26:32;10.63;;;7.13;;
16760;SDS011;8498;52.516;13.790;2022-10-16T18:31:54;7.90;;;5.90;;
16760;SDS011;8498;52.516;13.790;2022-10-16T18:37:18;5.90;;;5.23;;
16760;SDS011;8498;52.516;13.790;2022-10-16T18:42:41;10.03;;;5.90;;
16760;SDS011;8498;52.516;13.790;2022-10-16T18:48:05;7.60;;;5.17;;
16760;SDS011;8498;52.516;13.790;2022-10-16T18:53:29;8.03;;;4.60;;
16760;SDS011;8498;52.516;13.790;2022-10-16T18:58:51;6.83;;;3.93;;
16760;SDS011;8498;52.516;13.790;2022-10-16T19:04:15;5.47;;;4.87;;
16760;SDS011;8498;52.516;13.790;2022-10-16T19:09:38;8.27;;;4.80;;
16760;SDS011;8498;52.516;13.790;2022-10-16T19:15:01;5.17;;;3.33;;
16760;SDS011;8498;52.516;13.790;2022-10-16T19:20:23;3.30;;;3.10;;
16760;SDS011;8498;52.516;13.790;2022-10-16T19:25:45;3.97;;;3.57;;
16760;SDS011;8498;52.516;13.790;2022-10-16T19:31:09;7.50;;;4.40;;
16760;SDS011;8498;52.516;13.790;2022-10-16T19:36:34;7.20;;;4.93;;
16760;SDS011;8498;52.516;13.790;2022-10-16T19:41:59;11.10;;;5.80;;
16760;SDS011;8498;52.516;13.790;2022-10-16T19:47:21;11.37;;;5.67;;
16760;SDS011;8498;52.516;13.790;2022-10-16T19:52:44;15.27;;;6.60;;
16760;SDS011;8498;52.516;13.790;2022-10-16T19:58:07;7.00;;;5.27;;
16760;SDS011;8498;52.516;13.790;2022-10-16T20:03:29;7.97;;;5.50;;
16760;SDS011;8498;52.516;13.790;2022-10-16T20:08:52;7.13;;;5.93;;
16760;SDS011;8498;52.516;13.790;2022-10-16T20:14:15;17.37;;;8.20;;
16760;SDS011;8498;52.516;13.790;2022-10-16T20:19:37;19.50;;;8.90;;
16760;SDS011;8498;52.516;13.790;2022-10-16T20:25:00;15.13;;;8.13;;
16760;SDS011;8498;52.516;13.790;2022-10-16T20:30:24;14.83;;;8.43;;
16760;SDS011;8498;52.516;13.790;2022-10-16T20:35:48;13.57;;;8.70;;
16760;SDS011;8498;52.516;13.790;2022-10-16T20:41:11;10.87;;;6.60;;
16760;SDS011;8498;52.516;13.790;2022-10-16T20:46:35;11.90;;;7.43;;
16760;SDS011;8498;52.516;13.790;2022-10-16T20:51:57;8.57;;;5.90;;
16760;SDS011;8498;52.516;13.790;2022-10-16T20:57:19;11.77;;;6.87;;
16760;SDS011;8498;52.516;13.790;2022-10-16T21:02:42;9.83;;;5.93;;
16760;SDS011;8498;52.516;13.790;2022-10-16T21:08:04;8.50;;;6.40;;
16760;SDS011;8498;52.516;13.790;2022-10-16T21:13:27;5.93;;;4.93;;
16760;SDS011;8498;52.516;13.790;2022-10-16T21:18:52;10.67;;;4.93;;
16760;SDS011;8498;52.516;13.790;2022-10-16T21:24:15;8.97;;;4.50;;
16760;SDS011;8498;52.516;13.790;2022-10-16T21:29:38;5.27;;;3.93;;
16760;SDS011;8498;52.516;13.790;2022-10-16T21:35:01;8.57;;;4.80;;
16760;SDS011;8498;52.516;13.790;2022-10-16T21:40:23;4.47;;;4.07;;
16760;SDS011;8498;52.516;13.790;2022-10-16T21:45:46;7.17;;;4.10;;
16760;SDS011;8498;52.516;13.790;2022-10-16T21:51:09;6.23;;;3.87;;
16760;SDS011;8498;52.516;13.790;2022-10-16T21:56:33;4.30;;;3.83;;
16760;SDS011;8498;52.516;13.790;2022-10-16T22:01:55;8.53;;;3.63;;
16760;SDS011;8498;52.516;13.790;2022-10-16T22:07:18;4.43;;;3.80;;
16760;SDS011;8498;52.516;13.790;2022-10-16T22:12:40;9.30;;;4.13;;
16760;SDS011;8498;52.516;13.790;2022-10-16T22:18:02;4.77;;;3.80;;
16760;SDS011;8498;52.516;13.790;2022-10-16T22:23:25;7.23;;;4.20;;
16760;SDS011;8498;52.516;13.790;2022-10-16T22:28:47;4.53;;;3.60;;
16760;SDS011;8498;52.516;13.790;2022-10-16T22:34:10;15.37;;;5.97;;
16760;SDS011;8498;52.516;13.790;2022-10-16T22:39:34;16.43;;;5.73;;
16760;SDS011;8498;52.516;13.790;2022-10-16T22:44:56;15.40;;;5.60;;
16760;SDS011;8498;52.516;13.790;2022-10-16T22:50:18;18.90;;;6.27;;
16760;SDS011;8498;52.516;13.790;2022-10-16T22:55:41;10.60;;;5.57;;
16760;SDS011;8498;52.516;13.790;2022-10-16T23:01:25;12.63;;;5.87;;
16760;SDS011;8498;52.516;13.790;2022-10-16T23:06:48;13.67;;;5.30;;
16760;SDS011;8498;52.516;13.790;2022-10-16T23:12:10;9.33;;;4.90;;
16760;SDS011;8498;52.516;13.790;2022-10-16T23:17:32;12.80;;;4.93;;
16760;SDS011;8498;52.516;13.790;2022-10-16T23:22:54;7.27;;;4.27;;
16760;SDS011;8498;52.516;13.790;2022-10-16T23:28:16;9.77;;;5.00;;
16760;SDS011;8498;52.516;13.790;2022-10-16T23:33:39;7.10;;;4.30;;
16760;SDS011;8498;52.516;13.790;2022-10-16T23:39:02;9.70;;;5.13;;
16760;SDS011;8498;52.516;13.790;2022-10-16T23:44:24;10.60;;;5.00;;
16760;SDS011;8498;52.516;13.790;2022-10-16T23:49:47;7.77;;;4.20;;
16760;SDS011;8498;52.516;13.790;2022-10-16T23:55:09;7.33;;;4.10;;
